createdAt,value
2018-05-08T00:02:09.904Z,61.40
2018-05-08T00:04:37.556Z,61.40
2018-05-08T00:07:05.003Z,61.30
2018-05-08T00:09:32.450Z,61.40
2018-05-08T00:12:00.343Z,61.30
2018-05-08T00:14:29.175Z,61.30
2018-05-08T00:16:57.402Z,61.30
2018-05-08T00:19:25.844Z,61.30
2018-05-08T00:21:53.278Z,61.30
2018-05-08T00:24:21.522Z,61.30
2018-05-08T00:26:49.184Z,61.30
2018-05-08T00:29:16.625Z,62.00
2018-05-08T00:31:44.097Z,61.30
2018-05-08T00:34:12.382Z,61.30
2018-05-08T00:36:39.823Z,61.30
2018-05-08T00:39:07.282Z,61.20
2018-05-08T00:41:34.959Z,61.20
2018-05-08T00:44:02.390Z,61.20
2018-05-08T00:46:29.845Z,61.20
2018-05-08T00:48:57.628Z,61.20
2018-05-08T00:51:25.082Z,61.20
2018-05-08T00:53:52.527Z,61.20
2018-05-08T00:56:21.243Z,61.10
2018-05-08T00:58:48.677Z,61.10
2018-05-08T01:01:16.150Z,61.20
2018-05-08T01:03:43.906Z,61.10
2018-05-08T01:06:11.354Z,61.20
2018-05-08T01:08:41.382Z,61.10
2018-05-08T01:11:09.142Z,61.20
2018-05-08T01:13:36.614Z,61.10
2018-05-08T01:16:04.420Z,61.10
2018-05-08T01:18:32.859Z,61.00
2018-05-08T01:21:00.304Z,61.00
2018-05-08T01:23:27.780Z,61.00
2018-05-08T01:25:56.046Z,61.00
2018-05-08T01:28:23.494Z,61.00
2018-05-08T01:30:50.935Z,61.00
2018-05-08T01:33:18.836Z,61.00
2018-05-08T01:35:46.279Z,61.00
2018-05-08T01:38:13.726Z,61.00
2018-05-08T01:40:41.402Z,61.00
2018-05-08T01:43:08.849Z,60.90
2018-05-08T01:45:36.295Z,61.00
2018-05-08T01:48:04.195Z,61.00
2018-05-08T01:50:31.633Z,61.00
2018-05-08T01:52:59.074Z,61.00
2018-05-08T01:55:26.754Z,60.90
2018-05-08T01:57:54.204Z,61.00
2018-05-08T02:00:21.641Z,61.00
2018-05-08T02:02:49.137Z,60.90
2018-05-08T02:05:16.578Z,60.90
2018-05-08T02:07:47.472Z,60.90
2018-05-08T02:10:15.743Z,60.90
2018-05-08T02:12:44.002Z,61.40
2018-05-08T02:15:11.451Z,60.90
2018-05-08T02:17:39.419Z,60.90
2018-05-08T02:20:06.865Z,60.90
2018-05-08T02:22:34.313Z,60.90
2018-05-08T02:25:03.222Z,60.80
2018-05-08T02:27:30.680Z,60.90
2018-05-08T02:29:58.144Z,60.90
2018-05-08T02:32:25.797Z,60.80
2018-05-08T02:34:53.258Z,60.80
2018-05-08T02:37:20.702Z,60.80
2018-05-08T02:39:48.584Z,60.80
2018-05-08T02:42:16.030Z,60.80
2018-05-08T02:44:43.498Z,60.80
2018-05-08T02:47:12.115Z,60.80
2018-05-08T02:49:40.340Z,60.80
2018-05-08T02:52:07.827Z,60.80
2018-05-08T02:54:35.579Z,60.70
2018-05-08T02:57:03.032Z,60.80
2018-05-08T02:59:30.483Z,60.70
2018-05-08T03:01:58.269Z,60.80
2018-05-08T03:04:25.718Z,60.80
2018-05-08T03:06:53.155Z,60.80
2018-05-08T03:09:24.421Z,60.80
2018-05-08T03:11:51.862Z,60.70
2018-05-08T03:14:19.303Z,60.70
2018-05-08T03:16:47.007Z,60.70
2018-05-08T03:19:14.774Z,60.70
2018-05-08T03:21:42.223Z,60.70
2018-05-08T03:24:10.194Z,60.70
2018-05-08T03:26:37.645Z,60.70
2018-05-08T03:29:05.094Z,60.70
2018-05-08T03:31:33.794Z,60.70
2018-05-08T03:34:01.247Z,60.70
2018-05-08T03:36:28.708Z,60.70
2018-05-08T03:38:56.579Z,60.60
2018-05-08T03:41:24.031Z,60.60
2018-05-08T03:43:51.490Z,61.30
2018-05-08T03:46:19.265Z,60.70
2018-05-08T03:48:46.709Z,60.60
2018-05-08T03:51:14.176Z,60.50
2018-05-08T03:53:43.156Z,60.60
2018-05-08T03:56:10.613Z,60.50
2018-05-08T03:58:38.083Z,60.60
2018-05-08T04:01:17.727Z,60.60
2018-05-08T04:03:57.178Z,60.60
2018-05-08T04:06:34.559Z,60.60
2018-05-08T04:09:02.007Z,60.50
2018-05-08T04:11:29.479Z,60.60
2018-05-08T04:13:58.264Z,60.60
2018-05-08T04:16:25.710Z,60.50
2018-05-08T04:18:53.160Z,60.40
2018-05-08T04:21:21.962Z,60.30
2018-05-08T04:23:49.407Z,58.20
2018-05-08T04:26:16.878Z,59.30
2018-05-08T04:28:44.631Z,59.90
2018-05-08T04:31:12.074Z,59.70
2018-05-08T04:33:39.524Z,59.90
2018-05-08T04:36:08.044Z,60.40
2018-05-08T04:38:35.481Z,59.40
2018-05-08T04:41:02.927Z,59.30
2018-05-08T04:43:30.609Z,59.50
2018-05-08T04:45:58.057Z,60.00
2018-05-08T04:48:25.541Z,60.30
2018-05-08T04:50:53.089Z,60.50
2018-05-08T04:53:20.564Z,60.60
2018-05-08T04:55:48.064Z,60.80
2018-05-08T04:58:16.181Z,60.80
2018-05-08T05:00:43.618Z,60.80
2018-05-08T05:03:11.077Z,60.90
2018-05-08T05:05:38.759Z,60.80
2018-05-08T05:08:06.227Z,60.80
2018-05-08T05:10:33.771Z,60.90
2018-05-08T05:13:01.543Z,60.90
2018-05-08T05:15:29.017Z,60.90
2018-05-08T05:17:56.491Z,60.90
2018-05-08T05:20:26.786Z,60.90
2018-05-08T05:22:55.794Z,60.80
2018-05-08T05:25:23.233Z,60.60
2018-05-08T05:27:50.936Z,60.80
2018-05-08T05:30:19.187Z,61.30
2018-05-08T05:32:46.631Z,60.60
2018-05-08T05:35:14.407Z,60.70
2018-05-08T05:37:41.850Z,60.50
2018-05-08T05:40:09.301Z,60.70
2018-05-08T05:45:10.571Z,60.70
2018-05-08T05:47:38.028Z,60.70
2018-05-08T05:50:05.855Z,60.80
2018-05-08T05:52:34.078Z,61.20
2018-05-08T05:55:01.530Z,60.80
2018-05-08T05:57:29.450Z,60.80
2018-05-08T05:59:57.671Z,60.80
2018-05-08T06:02:25.250Z,60.80
2018-05-08T06:04:53.422Z,60.80
2018-05-08T06:07:20.878Z,60.80
2018-05-08T06:09:49.361Z,60.80
2018-05-08T06:12:17.230Z,60.80
2018-05-08T06:14:44.678Z,60.70
2018-05-08T06:17:12.119Z,60.70
2018-05-08T06:19:39.715Z,60.70
2018-05-08T06:22:07.254Z,60.70
2018-05-08T06:24:34.983Z,60.70
2018-05-08T06:27:03.411Z,61.40
2018-05-08T06:29:30.855Z,60.70
2018-05-08T06:31:58.303Z,60.70
2018-05-08T06:34:25.999Z,60.90
2018-05-08T06:36:53.442Z,60.40
2018-05-08T06:39:20.911Z,60.50
2018-05-08T06:41:48.880Z,60.70
2018-05-08T06:44:16.497Z,60.40
2018-05-08T06:46:43.980Z,60.70
2018-05-08T06:49:12.883Z,60.60
2018-05-08T06:51:40.318Z,60.70
2018-05-08T06:54:07.797Z,60.70
2018-05-08T06:56:35.483Z,60.70
2018-05-08T06:59:03.066Z,60.70
2018-05-08T07:01:30.469Z,60.50
2018-05-08T07:03:58.232Z,60.70
2018-05-08T07:06:25.703Z,60.80
2018-05-08T07:08:56.047Z,60.80
2018-05-08T07:11:25.327Z,60.50
2018-05-08T07:13:52.775Z,60.50
2018-05-08T07:16:20.244Z,60.50
2018-05-08T07:18:48.100Z,60.50
2018-05-08T07:21:15.558Z,60.50
2018-05-08T07:23:43.023Z,60.60
2018-05-08T07:26:11.406Z,60.60
2018-05-08T07:28:38.854Z,60.50
2018-05-08T07:31:06.336Z,60.50
2018-05-08T07:33:33.918Z,60.50
2018-05-08T07:36:02.167Z,60.60
2018-05-08T07:38:29.712Z,60.60
2018-05-08T07:40:57.783Z,60.60
2018-05-08T07:43:25.233Z,60.60
2018-05-08T07:45:52.679Z,60.70
2018-05-08T07:48:21.438Z,60.60
2018-05-08T07:50:48.886Z,60.70
2018-05-08T07:53:17.119Z,60.70
2018-05-08T07:55:44.778Z,60.70
2018-05-08T07:58:12.226Z,60.60
2018-05-08T08:00:39.688Z,60.70
2018-05-08T08:03:07.415Z,60.70
2018-05-08T08:05:35.611Z,60.50
2018-05-08T08:08:05.979Z,60.70
2018-05-08T08:10:34.031Z,60.70
2018-05-08T08:13:01.491Z,60.80
2018-05-08T08:15:28.938Z,60.70
2018-05-08T08:17:56.711Z,60.80
2018-05-08T08:20:24.168Z,60.70
2018-05-08T08:22:51.621Z,60.70
2018-05-08T08:25:20.007Z,60.70
2018-05-08T08:27:47.450Z,60.70
2018-05-08T08:30:14.926Z,60.70
2018-05-08T08:32:42.787Z,60.70
2018-05-08T08:35:10.228Z,60.70
2018-05-08T08:37:37.687Z,60.70
2018-05-08T08:40:05.642Z,60.70
2018-05-08T08:42:33.096Z,60.70
2018-05-08T08:45:00.583Z,60.70
2018-05-08T08:47:28.918Z,60.70
2018-05-08T08:49:56.350Z,60.70
2018-05-08T08:52:23.835Z,60.70
2018-05-08T08:54:51.560Z,60.70
2018-05-08T08:57:19.003Z,60.70
2018-05-08T08:59:46.467Z,60.70
2018-05-08T09:02:13.994Z,61.40
2018-05-08T09:04:41.435Z,60.70
2018-05-08T09:07:08.950Z,60.70
2018-05-08T09:09:39.361Z,60.80
2018-05-08T09:12:06.834Z,60.40
2018-05-08T09:14:34.275Z,60.30
2018-05-08T09:17:01.975Z,60.40
2018-05-08T09:19:30.187Z,60.60
2018-05-08T09:21:57.624Z,60.60
2018-05-08T09:24:25.439Z,60.50
2018-05-08T09:26:52.885Z,60.60
2018-05-08T09:29:20.362Z,60.80
2018-05-08T09:31:48.814Z,60.50
2018-05-08T09:34:16.183Z,60.50
2018-05-08T09:36:43.628Z,60.60
2018-05-08T09:39:11.314Z,60.60
2018-05-08T09:41:38.763Z,60.60
2018-05-08T09:44:06.216Z,60.60
2018-05-08T09:46:33.991Z,60.60
2018-05-08T09:49:01.464Z,60.50
2018-05-08T09:51:28.898Z,60.60
2018-05-08T09:53:56.870Z,60.60
2018-05-08T09:56:24.335Z,60.80
2018-05-08T09:58:51.778Z,60.70
2018-05-08T10:01:19.774Z,60.50
2018-05-08T10:03:47.226Z,60.80
2018-05-08T10:06:14.657Z,60.60
2018-05-08T10:08:43.363Z,60.70
2018-05-08T10:11:12.314Z,60.60
2018-05-08T10:13:39.759Z,61.60
2018-05-08T10:16:07.483Z,61.70
2018-05-08T10:18:34.931Z,62.20
2018-05-08T10:21:02.379Z,61.50
2018-05-08T10:23:30.282Z,61.40
2018-05-08T10:25:57.734Z,61.90
2018-05-08T10:28:25.172Z,61.90
2018-05-08T10:30:53.647Z,61.60
2018-05-08T10:33:21.099Z,63.20
2018-05-08T10:35:48.538Z,62.40
2018-05-08T10:38:16.340Z,62.10
2018-05-08T10:40:43.786Z,63.30
2018-05-08T10:43:11.223Z,62.70
2018-05-08T10:45:39.015Z,62.50
2018-05-08T10:48:06.471Z,64.10
2018-05-08T10:50:33.911Z,63.10
2018-05-08T10:53:02.522Z,64.80
2018-05-08T10:55:29.967Z,64.30
2018-05-08T10:57:57.427Z,63.50
2018-05-08T11:00:26.227Z,64.80
2018-05-08T11:02:55.424Z,64.60
2018-05-08T11:05:22.863Z,64.40
2018-05-08T11:07:50.650Z,65.30
2018-05-08T11:10:18.167Z,65.00
2018-05-08T11:12:53.141Z,65.00
2018-05-08T11:15:20.575Z,65.50
2018-05-08T11:17:48.052Z,65.40
2018-05-08T11:20:15.922Z,66.60
2018-05-08T11:22:43.380Z,66.40
2018-05-08T11:25:10.928Z,68.00
2018-05-08T11:27:38.550Z,68.50
2018-05-08T11:30:05.998Z,66.00
2018-05-08T11:32:33.446Z,66.40
2018-05-08T11:35:02.712Z,66.40
2018-05-08T11:37:30.168Z,66.40
2018-05-08T11:39:57.624Z,65.80
2018-05-08T11:42:25.388Z,65.40
2018-05-08T11:44:52.837Z,64.80
2018-05-08T11:47:20.283Z,64.60
2018-05-08T11:49:48.032Z,65.00
2018-05-08T11:52:15.479Z,64.80
2018-05-08T11:54:42.932Z,63.80
2018-05-08T11:57:11.665Z,63.90
2018-05-08T11:59:39.113Z,63.80
2018-05-08T12:02:06.561Z,63.40
2018-05-08T12:04:34.058Z,63.20
2018-05-08T12:07:01.517Z,63.20
2018-05-08T12:09:28.960Z,63.10
2018-05-08T12:11:57.354Z,63.30
2018-05-08T12:14:24.877Z,63.20
2018-05-08T12:16:52.252Z,63.00
2018-05-08T12:19:21.036Z,62.70
2018-05-08T12:21:48.509Z,62.80
2018-05-08T12:24:15.955Z,62.60
2018-05-08T12:26:43.472Z,63.10
2018-05-08T12:29:10.983Z,62.50
2018-05-08T12:31:38.427Z,63.20
2018-05-08T12:34:10.083Z,62.20
2018-05-08T12:36:37.542Z,62.20
2018-05-08T12:39:06.147Z,62.30
2018-05-08T12:41:33.995Z,62.30
2018-05-08T12:44:01.431Z,62.10
2018-05-08T12:46:28.910Z,62.10
2018-05-08T12:48:56.978Z,62.30
2018-05-08T12:51:24.435Z,62.30
2018-05-08T12:53:51.878Z,62.20
2018-05-08T12:56:19.571Z,62.30
2018-05-08T12:58:47.128Z,62.30
2018-05-08T13:01:14.588Z,62.40
2018-05-08T13:03:43.073Z,62.40
2018-05-08T13:06:10.524Z,62.40
2018-05-08T13:08:41.411Z,62.80
2018-05-08T13:11:09.122Z,62.30
2018-05-08T13:13:36.775Z,62.40
2018-05-08T13:16:04.219Z,62.30
2018-05-08T13:18:32.212Z,62.10
2018-05-08T13:20:59.648Z,62.10
2018-05-08T13:23:27.123Z,62.10
2018-05-08T13:25:55.544Z,61.90
2018-05-08T13:28:23.759Z,61.80
2018-05-08T13:30:51.204Z,61.80
2018-05-08T13:33:19.312Z,61.80
2018-05-08T13:35:46.763Z,61.70
2018-05-08T13:38:14.200Z,61.70
2018-05-08T13:40:42.100Z,61.80
2018-05-08T13:43:09.551Z,61.70
2018-05-08T13:45:36.997Z,62.50
2018-05-08T13:48:05.210Z,61.60
2018-05-08T13:50:32.654Z,61.50
2018-05-08T13:53:00.110Z,61.60
2018-05-08T13:55:28.011Z,61.60
2018-05-08T13:57:56.238Z,62.20
2018-05-08T14:00:23.681Z,61.50
2018-05-08T14:02:51.472Z,61.60
2018-05-08T14:05:18.930Z,61.60
2018-05-08T14:07:49.991Z,61.70
2018-05-08T14:10:17.632Z,61.70
2018-05-08T14:12:45.950Z,61.90
2018-05-08T14:15:14.992Z,61.70
2018-05-08T14:17:42.444Z,61.70
2018-05-08T14:20:09.898Z,61.80
2018-05-08T14:22:37.787Z,61.80
2018-05-08T14:25:05.250Z,61.70
2018-05-08T14:27:32.699Z,61.70
2018-05-08T14:30:00.983Z,61.70
2018-05-08T14:32:29.318Z,62.60
2018-05-08T14:34:56.767Z,61.90
2018-05-08T14:37:24.868Z,61.80
2018-05-08T14:39:52.238Z,62.10
2018-05-08T14:42:19.712Z,61.80
2018-05-08T14:44:47.358Z,61.90
2018-05-08T14:47:14.829Z,61.90
2018-05-08T14:49:42.271Z,61.80
2018-05-08T14:52:10.515Z,61.60
2018-05-08T14:54:37.952Z,61.70
2018-05-08T14:57:06.196Z,61.60
2018-05-08T14:59:34.158Z,61.60
2018-05-08T15:02:01.599Z,61.60
2018-05-08T15:04:29.183Z,61.40
2018-05-08T15:06:57.652Z,61.30
2018-05-08T15:09:27.671Z,61.30
2018-05-08T15:11:55.127Z,61.50
2018-05-08T15:14:22.684Z,61.40
2018-05-08T15:16:50.655Z,61.40
2018-05-08T15:19:18.108Z,61.60
2018-05-08T15:21:45.882Z,61.40
2018-05-08T15:24:13.330Z,61.30
2018-05-08T15:26:40.797Z,61.20
2018-05-08T15:29:09.118Z,61.50
2018-05-08T15:31:36.527Z,61.50
2018-05-08T15:34:04.050Z,61.60
2018-05-08T15:36:31.840Z,61.70
2018-05-08T15:38:59.287Z,61.70
2018-05-08T15:41:26.730Z,61.60
2018-05-08T15:43:54.350Z,61.50
2018-05-08T15:46:21.804Z,61.50
2018-05-08T15:48:49.246Z,61.60
2018-05-08T15:51:18.130Z,61.60
2018-05-08T15:53:45.622Z,61.60
2018-05-08T15:56:13.058Z,61.50
2018-05-08T15:58:40.708Z,61.50
2018-05-08T16:01:08.170Z,61.60
2018-05-08T16:03:35.611Z,61.60
2018-05-08T16:06:03.303Z,61.70
2018-05-08T16:08:34.635Z,62.10
2018-05-08T16:11:02.084Z,62.00
2018-05-08T16:13:30.162Z,62.10
2018-05-08T16:15:57.616Z,61.80
2018-05-08T16:18:25.131Z,61.80
2018-05-08T16:20:52.846Z,62.50
2018-05-08T16:23:20.294Z,62.00
2018-05-08T16:25:47.741Z,62.20
2018-05-08T16:28:16.554Z,62.10
2018-05-08T16:30:44.111Z,62.10
2018-05-08T16:33:11.567Z,62.30
2018-05-08T16:35:39.124Z,62.20
2018-05-08T16:38:06.576Z,62.20
2018-05-08T16:40:34.058Z,62.10
2018-05-08T16:43:01.817Z,62.30
2018-05-08T16:45:29.272Z,62.50
2018-05-08T16:47:56.841Z,62.10
2018-05-08T16:50:29.712Z,63.40
2018-05-08T16:52:57.164Z,62.50
2018-05-08T16:55:24.610Z,62.20
2018-05-08T16:57:52.705Z,62.00
2018-05-08T17:00:20.151Z,62.40
2018-05-08T17:02:47.615Z,63.00
2018-05-08T17:05:15.586Z,63.20
2018-05-08T17:07:45.710Z,62.90
2018-05-08T17:10:13.264Z,63.20
2018-05-08T17:12:40.767Z,62.80
